createdAt,value
2023-02-22T00:01:07.377Z,71.57
2023-02-22T00:03:34.937Z,66.80
2023-02-22T00:06:05.812Z,66.57
2023-02-22T00:08:36.562Z,74.22
2023-02-22T00:11:08.692Z,80.15
2023-02-22T00:13:38.312Z,77.57
2023-02-22T00:16:06.955Z,72.40
2023-02-22T00:18:34.231Z,77.55
2023-02-22T00:21:01.885Z,70.00
2023-02-22T00:23:31.770Z,71.53
2023-02-22T00:26:00.214Z,64.28
2023-02-22T00:28:27.755Z,68.65
2023-02-22T00:30:55.362Z,71.93
2023-02-22T00:33:23.250Z,74.50
2023-02-22T00:35:50.509Z,72.07
2023-02-22T00:38:19.307Z,71.43
2023-02-22T00:40:46.772Z,76.32
2023-02-22T00:43:14.915Z,75.00
2023-02-22T00:45:42.808Z,80.13
2023-02-22T00:48:11.001Z,73.20
2023-02-22T00:50:38.241Z,70.78
2023-02-22T00:53:07.225Z,76.22
2023-02-22T00:55:37.777Z,72.55
2023-02-22T00:58:06.491Z,75.35
2023-02-22T01:00:39.804Z,75.47
2023-02-22T01:03:10.619Z,78.55
2023-02-22T01:05:38.247Z,79.57
2023-02-22T01:08:08.692Z,79.10
2023-02-22T01:10:37.918Z,78.13
2023-02-22T01:13:08.721Z,79.40
2023-02-22T01:15:39.656Z,76.55
2023-02-22T01:18:07.602Z,74.18
2023-02-22T01:20:35.346Z,75.28
2023-02-22T01:23:06.504Z,86.95
2023-02-22T01:25:35.822Z,78.97
2023-02-22T01:28:06.762Z,80.43
2023-02-22T01:30:36.412Z,74.65
2023-02-22T01:33:07.341Z,78.10
2023-02-22T01:35:41.128Z,79.25
2023-02-22T01:38:10.514Z,87.72
2023-02-22T01:40:41.930Z,81.40
2023-02-22T01:43:32.584Z,75.57
2023-02-22T01:46:26.708Z,79.07
2023-02-22T01:49:06.317Z,79.55
2023-02-22T01:51:42.984Z,79.50
2023-02-22T01:54:29.037Z,81.07
2023-02-22T01:57:24.654Z,77.70
2023-02-22T01:59:58.782Z,83.15
2023-02-22T02:02:27.435Z,89.75
2023-02-22T02:04:57.604Z,83.35
2023-02-22T02:07:24.892Z,75.15
2023-02-22T02:10:02.991Z,85.72
2023-02-22T02:12:35.877Z,81.45
2023-02-22T02:15:28.900Z,80.97
2023-02-22T02:18:03.328Z,82.15
2023-02-22T02:21:08.050Z,94.28
2023-02-22T02:24:28.492Z,88.18
2023-02-22T02:27:19.297Z,87.22
2023-02-22T02:30:35.213Z,96.65
2023-02-22T02:33:33.484Z,98.57
2023-02-22T02:36:12.883Z,96.22
2023-02-22T02:38:57.489Z,98.32
2023-02-22T02:41:43.038Z,95.75
2023-02-22T02:44:24.614Z,98.40
2023-02-22T02:47:01.100Z,98.43
2023-02-22T02:49:45.909Z,103.05
2023-02-22T02:52:18.084Z,102.03
2023-02-22T02:54:47.027Z,81.87
2023-02-22T02:57:14.247Z,77.50
2023-02-22T02:59:41.485Z,76.32
2023-02-22T03:02:52.268Z,72.55
2023-02-22T03:05:43.887Z,82.28
2023-02-22T03:08:32.504Z,75.88
2023-02-22T03:11:16.418Z,77.90
2023-02-22T03:14:25.283Z,74.13
2023-02-22T03:17:05.230Z,73.47
2023-02-22T03:19:43.820Z,69.75
2023-02-22T03:22:34.867Z,78.00
2023-02-22T03:25:10.209Z,77.13
2023-02-22T03:27:46.408Z,82.78
2023-02-22T03:30:45.412Z,74.70
2023-02-22T03:33:28.702Z,100.68
2023-02-22T03:38:33.667Z,101.78
2023-02-22T03:41:04.912Z,101.22
2023-02-22T03:43:41.479Z,103.15
2023-02-22T03:46:13.077Z,87.45
2023-02-22T03:48:57.471Z,88.78
2023-02-22T03:51:24.930Z,87.28
2023-02-22T03:53:53.631Z,91.95
2023-02-22T03:56:35.586Z,82.90
2023-02-22T03:59:09.275Z,98.32
2023-02-22T04:01:37.193Z,88.43
2023-02-22T04:04:05.069Z,106.97
2023-02-22T04:06:32.436Z,173.43
2023-02-22T04:08:59.704Z,87.97
2023-02-22T04:11:26.829Z,94.22
2023-02-22T04:13:54.837Z,91.68
2023-02-22T04:16:22.053Z,93.88
2023-02-22T04:18:49.299Z,93.10
2023-02-22T04:21:16.752Z,94.00
2023-02-22T04:23:44.183Z,102.40
2023-02-22T04:26:11.455Z,117.30
2023-02-22T04:28:38.619Z,104.00
2023-02-22T04:31:05.905Z,109.30
2023-02-22T04:33:33.215Z,105.93
2023-02-22T04:36:00.483Z,114.40
2023-02-22T04:38:27.898Z,105.97
2023-02-22T04:40:55.418Z,117.97
2023-02-22T04:43:22.952Z,132.55
2023-02-22T04:45:50.117Z,122.85
2023-02-22T04:48:17.609Z,119.70
2023-02-22T04:50:47.555Z,117.80
2023-02-22T04:53:14.906Z,118.38
2023-02-22T04:55:42.041Z,120.55
2023-02-22T04:58:09.631Z,118.35
2023-02-22T05:00:36.885Z,108.07
2023-02-22T05:03:04.257Z,100.10
2023-02-22T05:05:31.425Z,90.07
2023-02-22T05:07:58.571Z,101.28
2023-02-22T05:10:25.789Z,103.43
2023-02-22T05:12:52.997Z,93.47
2023-02-22T05:15:22.424Z,108.32
2023-02-22T05:17:49.586Z,117.35
2023-02-22T05:20:35.286Z,114.47
2023-02-22T05:23:03.905Z,120.88
2023-02-22T05:25:33.146Z,112.93
2023-02-22T05:28:08.859Z,115.88
2023-02-22T05:30:39.679Z,99.70
2023-02-22T05:33:08.084Z,98.88
2023-02-22T05:35:37.027Z,92.85
2023-02-22T05:38:05.256Z,97.68
2023-02-22T05:40:33.306Z,93.85
2023-02-22T05:43:02.172Z,170.63
2023-02-22T05:45:29.843Z,119.57
2023-02-22T05:47:57.786Z,115.60
2023-02-22T05:50:25.756Z,93.22
2023-02-22T05:52:54.549Z,96.63
2023-02-22T05:55:23.855Z,99.55
2023-02-22T05:57:52.537Z,101.20
2023-02-22T06:00:29.064Z,111.88
2023-02-22T06:02:58.939Z,106.90
2023-02-22T06:05:27.568Z,114.97
2023-02-22T06:07:56.145Z,119.20
2023-02-22T06:10:23.674Z,106.35
2023-02-22T06:12:52.384Z,113.97
2023-02-22T06:15:22.573Z,114.88
2023-02-22T06:17:51.413Z,111.78
2023-02-22T06:20:22.659Z,119.50
2023-02-22T06:22:53.230Z,65.97
2023-02-22T06:25:25.296Z,91.28
2023-02-22T06:27:52.617Z,113.47
2023-02-22T06:30:23.924Z,107.90
2023-02-22T06:32:51.234Z,102.32
2023-02-22T06:35:18.850Z,104.82
2023-02-22T06:37:46.642Z,106.82
2023-02-22T06:40:15.429Z,101.47
2023-02-22T06:42:42.578Z,105.07
2023-02-22T06:45:10.565Z,107.25
2023-02-22T06:47:41.437Z,98.95
2023-02-22T06:50:22.505Z,107.90
2023-02-22T06:52:49.840Z,104.90
2023-02-22T06:55:26.424Z,107.13
2023-02-22T06:57:53.849Z,106.78
2023-02-22T07:00:25.112Z,106.70
2023-02-22T07:02:53.124Z,102.15
2023-02-22T07:05:22.930Z,91.47
2023-02-22T07:07:53.202Z,86.65
2023-02-22T07:10:29.699Z,89.82
2023-02-22T07:12:57.024Z,93.63
2023-02-22T07:15:27.984Z,87.30
2023-02-22T07:17:56.216Z,80.53
2023-02-22T07:20:25.331Z,91.20
2023-02-22T07:22:52.904Z,86.97
2023-02-22T07:25:22.484Z,83.03
2023-02-22T07:27:49.640Z,88.00
2023-02-22T07:30:25.843Z,75.65
2023-02-22T07:32:55.481Z,77.57
2023-02-22T07:35:39.447Z,75.68
2023-02-22T07:38:08.191Z,70.88
2023-02-22T07:40:37.488Z,76.93
2023-02-22T07:43:17.276Z,73.10
2023-02-22T07:45:45.205Z,74.07
2023-02-22T07:48:17.102Z,70.20
2023-02-22T07:50:45.449Z,70.30
2023-02-22T07:53:19.548Z,71.45
2023-02-22T07:55:50.877Z,76.45
2023-02-22T07:58:23.692Z,62.08
2023-02-22T08:00:51.459Z,67.00
2023-02-22T08:03:21.809Z,60.95
2023-02-22T08:05:53.249Z,62.95
2023-02-22T08:08:21.024Z,54.78
2023-02-22T08:10:50.661Z,57.92
2023-02-22T08:13:19.563Z,60.75
2023-02-22T08:15:49.204Z,58.97
2023-02-22T08:18:19.088Z,63.50
2023-02-22T08:20:49.523Z,60.20
2023-02-22T08:23:19.180Z,61.83
2023-02-22T08:25:46.444Z,60.78
2023-02-22T08:28:17.984Z,59.10
2023-02-22T08:30:45.190Z,57.70
2023-02-22T08:33:16.807Z,60.95
2023-02-22T08:35:44.137Z,55.53
2023-02-22T08:38:26.835Z,68.57
2023-02-22T08:40:54.664Z,61.35
2023-02-22T08:43:23.259Z,57.63
2023-02-22T08:45:51.593Z,58.85
2023-02-22T08:48:20.260Z,55.70
2023-02-22T08:50:47.775Z,52.97
2023-02-22T08:53:16.886Z,47.45
2023-02-22T08:55:44.904Z,49.08
2023-02-22T08:58:13.427Z,49.00
2023-02-22T09:00:43.173Z,48.28
2023-02-22T09:03:14.613Z,52.92
2023-02-22T09:05:43.831Z,50.63
2023-02-22T09:08:11.093Z,48.47
2023-02-22T09:10:38.469Z,47.97
2023-02-22T09:13:06.220Z,48.88
2023-02-22T09:15:36.129Z,51.83
2023-02-22T09:18:08.377Z,47.42
2023-02-22T09:20:36.143Z,43.57
2023-02-22T09:23:06.365Z,43.33
2023-02-22T09:25:36.272Z,44.60
2023-02-22T09:28:03.494Z,42.20
2023-02-22T09:30:35.462Z,37.50
2023-02-22T09:33:10.202Z,37.80
2023-02-22T09:35:42.378Z,34.55
2023-02-22T09:38:11.407Z,33.33
2023-02-22T09:40:45.455Z,34.60
2023-02-22T09:43:32.608Z,40.88
2023-02-22T09:46:36.251Z,30.60
2023-02-22T09:52:24.039Z,25.83
2023-02-22T09:55:28.794Z,29.38
2023-02-22T09:58:02.711Z,25.05
2023-02-22T10:00:43.706Z,23.63
2023-02-22T10:03:36.459Z,23.35
2023-02-22T10:06:11.877Z,23.25
2023-02-22T10:08:39.193Z,22.48
2023-02-22T10:11:31.339Z,20.50
2023-02-22T10:14:42.955Z,19.50
2023-02-22T10:17:13.934Z,18.48
2023-02-22T10:20:13.775Z,17.55
2023-02-22T10:23:44.139Z,17.02
2023-02-22T10:26:12.252Z,16.35
2023-02-22T10:28:52.543Z,17.80
2023-02-22T10:31:28.283Z,17.13
2023-02-22T10:34:01.916Z,21.30
2023-02-22T10:36:29.747Z,16.40
2023-02-22T10:39:20.685Z,19.95
2023-02-22T10:41:57.249Z,17.65
2023-02-22T10:44:24.917Z,15.82
2023-02-22T10:46:53.439Z,17.85
2023-02-22T10:49:24.381Z,20.80
2023-02-22T10:52:02.185Z,20.17
2023-02-22T10:54:40.849Z,22.45
2023-02-22T10:57:12.076Z,19.33
2023-02-22T10:59:42.439Z,19.92
2023-02-22T11:02:23.365Z,19.40
2023-02-22T11:04:54.726Z,21.58
2023-02-22T11:07:30.144Z,20.77
2023-02-22T11:10:00.739Z,25.45
2023-02-22T11:12:37.438Z,24.90
2023-02-22T11:15:16.521Z,20.58
2023-02-22T11:17:50.502Z,22.77
2023-02-22T11:20:39.596Z,22.15
2023-02-22T11:23:08.199Z,23.67
2023-02-22T11:25:40.255Z,28.08
2023-02-22T11:28:14.950Z,23.95
2023-02-22T11:30:48.164Z,23.23
2023-02-22T11:33:23.897Z,25.90
2023-02-22T11:35:57.083Z,20.90
2023-02-22T11:38:29.142Z,21.17
2023-02-22T11:41:19.597Z,21.57
2023-02-22T11:43:49.791Z,19.15
2023-02-22T11:46:23.345Z,23.23
2023-02-22T11:49:09.021Z,24.90
2023-02-22T11:52:36.596Z,21.65
2023-02-22T11:55:36.472Z,22.60
2023-02-22T11:58:36.644Z,22.75
2023-02-22T12:01:37.905Z,22.63
2023-02-22T12:04:42.912Z,24.40
2023-02-22T12:07:31.815Z,21.90
2023-02-22T12:10:23.335Z,23.40
2023-02-22T12:13:23.945Z,23.25
2023-02-22T12:16:09.137Z,21.30
2023-02-22T12:19:28.212Z,23.92
2023-02-22T12:22:07.800Z,25.70
2023-02-22T12:25:03.938Z,22.92
2023-02-22T12:27:45.791Z,23.17
2023-02-22T12:30:16.781Z,22.85
2023-02-22T12:32:51.352Z,23.80
2023-02-22T12:35:27.079Z,24.13
2023-02-22T12:37:59.927Z,27.90
2023-02-22T12:40:57.044Z,22.70
2023-02-22T12:43:36.389Z,23.95
2023-02-22T12:46:30.915Z,25.35
2023-02-22T12:49:13.801Z,22.27
2023-02-22T12:52:21.651Z,21.30
2023-02-22T12:55:04.413Z,22.60
2023-02-22T12:57:49.182Z,23.30
2023-02-22T13:00:39.422Z,20.27
2023-02-22T13:03:32.788Z,24.77
2023-02-22T13:06:36.223Z,25.95
2023-02-22T13:09:55.226Z,27.48
2023-02-22T13:12:52.350Z,23.63
2023-02-22T13:15:39.563Z,24.20
2023-02-22T13:19:03.766Z,24.25
2023-02-22T13:24:32.944Z,24.00
2023-02-22T13:27:13.175Z,22.58
2023-02-22T13:29:46.703Z,25.65
2023-02-22T13:32:51.502Z,25.17
2023-02-22T13:35:55.435Z,28.17
2023-02-22T13:38:53.618Z,25.27
2023-02-22T13:41:33.540Z,29.88
2023-02-22T13:44:15.375Z,28.60
2023-02-22T13:47:25.624Z,28.23
2023-02-22T13:50:44.837Z,29.30
2023-02-22T13:53:21.267Z,31.17
2023-02-22T13:55:56.998Z,29.00
2023-02-22T13:58:25.660Z,30.10
2023-02-22T14:00:56.956Z,31.25
2023-02-22T14:03:40.583Z,26.35
2023-02-22T14:06:30.474Z,32.20
2023-02-22T14:08:57.687Z,26.25
2023-02-22T14:11:33.847Z,27.20
2023-02-22T14:14:00.993Z,32.30
2023-02-22T14:16:30.696Z,31.65
2023-02-22T14:19:20.614Z,29.67
2023-02-22T14:22:03.968Z,34.65
2023-02-22T14:24:45.410Z,27.13
2023-02-22T14:27:15.460Z,24.98
2023-02-22T14:29:56.227Z,26.92
2023-02-22T14:32:35.394Z,29.42
2023-02-22T14:35:26.412Z,31.15
2023-02-22T14:38:00.405Z,29.95
2023-02-22T14:40:36.126Z,25.85
2023-02-22T14:43:23.830Z,24.35
2023-02-22T14:46:00.245Z,25.80
2023-02-22T14:48:39.325Z,26.35
2023-02-22T14:51:21.959Z,24.75
2023-02-22T14:56:41.174Z,23.50
2023-02-22T14:59:24.027Z,24.17
2023-02-22T15:02:11.798Z,22.90
2023-02-22T15:04:43.761Z,22.83
2023-02-22T15:07:30.816Z,18.50
2023-02-22T15:10:25.053Z,25.17
2023-02-22T15:13:12.320Z,26.83
2023-02-22T15:15:49.658Z,29.73
2023-02-22T15:18:43.043Z,22.88
2023-02-22T15:21:17.877Z,23.63
2023-02-22T15:23:53.516Z,24.58
2023-02-22T15:26:38.208Z,25.98
2023-02-22T15:29:32.956Z,27.45
2023-02-22T15:32:00.187Z,23.13
2023-02-22T15:34:31.727Z,24.85
2023-02-22T15:37:25.390Z,22.55
2023-02-22T15:39:59.288Z,23.50
2023-02-22T15:42:30.312Z,27.27
2023-02-22T15:44:58.061Z,28.75
2023-02-22T15:47:29.391Z,28.92
2023-02-22T15:50:23.225Z,24.40
2023-02-22T15:53:00.199Z,24.42
2023-02-22T15:55:35.823Z,31.45
2023-02-22T15:58:14.896Z,25.92
2023-02-22T16:00:46.794Z,28.88
2023-02-22T16:03:28.261Z,28.55
2023-02-22T16:05:58.429Z,26.05
2023-02-22T16:08:52.607Z,28.65
2023-02-22T16:11:29.894Z,30.20
2023-02-22T16:14:04.757Z,30.27
2023-02-22T16:16:41.430Z,26.55
2023-02-22T16:19:17.606Z,26.63
2023-02-22T16:22:28.810Z,28.88
2023-02-22T16:25:17.824Z,27.67
2023-02-22T16:28:01.447Z,27.58
2023-02-22T16:30:39.360Z,31.52
2023-02-22T16:33:13.529Z,30.55
2023-02-22T16:35:43.310Z,30.30
2023-02-22T16:38:16.618Z,30.73
2023-02-22T16:40:54.599Z,28.55
2023-02-22T16:43:27.550Z,33.38
2023-02-22T16:48:26.638Z,32.38
2023-02-22T16:50:58.714Z,32.88
2023-02-22T16:53:30.645Z,31.03
2023-02-22T16:56:04.498Z,29.75
2023-02-22T16:58:38.956Z,32.90
2023-02-22T17:01:06.572Z,29.45
2023-02-22T17:03:33.865Z,36.08
2023-02-22T17:06:01.355Z,34.58
2023-02-22T17:08:28.482Z,35.60
2023-02-22T17:10:57.679Z,37.33
2023-02-22T17:13:29.128Z,38.72
2023-02-22T17:15:57.888Z,37.60
2023-02-22T17:18:28.496Z,38.08
2023-02-22T17:20:56.504Z,39.65
2023-02-22T17:23:24.228Z,35.17
2023-02-22T17:26:03.276Z,37.78
2023-02-22T17:28:31.503Z,38.38
2023-02-22T17:31:01.393Z,36.78
2023-02-22T17:33:34.240Z,40.58
2023-02-22T17:36:04.927Z,37.85
2023-02-22T17:38:32.246Z,38.90
2023-02-22T17:41:01.329Z,39.25
2023-02-22T17:43:29.485Z,36.80
2023-02-22T17:45:57.185Z,38.20
2023-02-22T17:48:24.924Z,42.08
2023-02-22T17:50:53.079Z,36.83
2023-02-22T17:53:22.723Z,36.97
2023-02-22T17:55:50.543Z,39.00
2023-02-22T17:58:18.402Z,36.75
2023-02-22T18:00:49.850Z,39.40
2023-02-22T18:03:21.567Z,41.63
2023-02-22T18:05:54.492Z,38.92
2023-02-22T18:08:25.383Z,35.90
2023-02-22T18:10:56.327Z,39.92
2023-02-22T18:13:27.734Z,45.78
2023-02-22T18:15:59.836Z,51.47
2023-02-22T18:18:28.061Z,43.35
2023-02-22T18:20:59.363Z,43.22
2023-02-22T18:23:30.287Z,45.42
2023-02-22T18:26:14.852Z,39.65
2023-02-22T18:28:42.068Z,39.78
2023-02-22T18:31:15.354Z,43.67
2023-02-22T18:33:48.031Z,39.15
2023-02-22T18:36:17.635Z,41.15
2023-02-22T18:38:45.357Z,40.53
2023-02-22T18:41:16.849Z,41.92
2023-02-22T18:43:46.282Z,45.97
2023-02-22T18:46:16.346Z,40.63
2023-02-22T18:48:45.534Z,41.80
2023-02-22T18:51:17.258Z,41.70
2023-02-22T18:53:47.504Z,42.72
2023-02-22T18:56:21.581Z,49.22
2023-02-22T18:58:54.429Z,45.08
2023-02-22T19:01:22.683Z,45.30
2023-02-22T19:03:51.726Z,44.15
2023-02-22T19:06:22.398Z,44.42
2023-02-22T19:08:50.810Z,40.20
2023-02-22T19:11:22.806Z,39.85
2023-02-22T19:13:54.165Z,47.22
2023-02-22T19:16:23.964Z,42.67
2023-02-22T19:18:56.794Z,42.25
2023-02-22T19:21:25.971Z,43.25
2023-02-22T19:23:53.341Z,45.50
2023-02-22T19:26:24.661Z,43.55
2023-02-22T19:28:57.056Z,42.67
2023-02-22T19:31:33.453Z,41.58
2023-02-22T19:34:09.354Z,48.63
2023-02-22T19:36:44.807Z,42.67
2023-02-22T19:39:20.703Z,41.80
2023-02-22T19:41:47.873Z,42.15
2023-02-22T19:44:15.020Z,42.28
2023-02-22T19:46:42.213Z,43.30
2023-02-22T19:49:09.456Z,39.95
2023-02-22T19:51:37.470Z,43.95
2023-02-22T19:54:12.392Z,40.13
2023-02-22T19:56:39.524Z,49.75
2023-02-22T19:59:13.355Z,44.78
2023-02-22T20:01:44.158Z,48.13
2023-02-22T20:04:21.211Z,43.30
2023-02-22T20:06:54.747Z,50.08
2023-02-22T20:09:29.841Z,45.10
2023-02-22T20:11:57.413Z,44.70
2023-02-22T20:14:28.370Z,49.28
2023-02-22T20:16:57.262Z,46.58
2023-02-22T20:19:26.587Z,52.05
2023-02-22T20:21:55.965Z,45.63
2023-02-22T20:24:24.282Z,46.45
2023-02-22T20:26:55.650Z,48.65
2023-02-22T20:29:29.437Z,49.20
2023-02-22T20:31:59.513Z,48.83
2023-02-22T20:34:31.088Z,50.63
2023-02-22T20:36:59.483Z,47.25
2023-02-22T20:39:27.177Z,51.97
2023-02-22T20:41:54.609Z,50.13
2023-02-22T20:44:22.059Z,54.40
2023-02-22T20:46:49.248Z,47.35
2023-02-22T20:49:19.995Z,49.33
2023-02-22T20:51:48.693Z,44.67
2023-02-22T20:54:17.106Z,48.17
2023-02-22T20:56:46.614Z,44.38
2023-02-22T20:59:17.801Z,41.47
2023-02-22T21:01:47.432Z,39.50
2023-02-22T21:04:14.835Z,40.17
2023-02-22T21:06:43.003Z,45.75
2023-02-22T21:09:17.727Z,43.92
2023-02-22T21:11:45.594Z,46.33
2023-02-22T21:14:18.390Z,44.55
2023-02-22T21:16:49.915Z,41.42
2023-02-22T21:19:25.633Z,44.30
2023-02-22T21:21:58.221Z,44.20
2023-02-22T21:24:28.443Z,44.50
2023-02-22T21:26:58.961Z,44.00
2023-02-22T21:29:28.952Z,45.28
2023-02-22T21:31:56.629Z,44.28
2023-02-22T21:34:25.655Z,45.75
2023-02-22T21:36:53.248Z,46.70
2023-02-22T21:39:20.896Z,46.60
2023-02-22T21:41:51.628Z,47.03
2023-02-22T21:44:20.009Z,44.20
2023-02-22T21:46:50.803Z,45.45
2023-02-22T21:49:23.117Z,39.72
2023-02-22T21:51:51.827Z,42.47
2023-02-22T21:54:19.782Z,46.15
2023-02-22T21:56:47.809Z,41.92
2023-02-22T21:59:21.141Z,45.47
2023-02-22T22:01:55.290Z,45.13
2023-02-22T22:04:30.301Z,48.85
2023-02-22T22:07:00.026Z,43.85
2023-02-22T22:09:32.610Z,47.53
2023-02-22T22:12:04.872Z,45.70
2023-02-22T22:14:34.071Z,43.57
2023-02-22T22:17:02.746Z,48.10
2023-02-22T22:19:34.174Z,44.97
2023-02-22T22:22:01.428Z,49.10
2023-02-22T22:24:33.589Z,52.75
2023-02-22T22:27:03.763Z,52.60
2023-02-22T22:29:34.170Z,57.10
2023-02-22T22:32:02.234Z,55.28
2023-02-22T22:34:29.888Z,49.58
2023-02-22T22:36:58.094Z,51.15
2023-02-22T22:39:26.884Z,52.10
2023-02-22T22:41:54.604Z,52.75
2023-02-22T22:44:28.732Z,53.08
2023-02-22T22:46:55.878Z,51.55
2023-02-22T22:49:25.437Z,48.90
2023-02-22T22:51:53.371Z,48.95
2023-02-22T22:54:20.484Z,51.85
2023-02-22T22:56:47.624Z,53.85
2023-02-22T22:59:15.217Z,54.17
2023-02-22T23:01:44.602Z,51.40
2023-02-22T23:04:18.000Z,52.65
2023-02-22T23:06:50.496Z,52.33
2023-02-22T23:09:25.363Z,51.45
2023-02-22T23:12:08.484Z,50.72
2023-02-22T23:14:39.567Z,52.10
2023-02-22T23:17:26.720Z,49.78
2023-02-22T23:19:53.935Z,52.17
2023-02-22T23:22:21.201Z,51.15
2023-02-22T23:24:48.468Z,50.08
2023-02-22T23:27:15.685Z,49.85
2023-02-22T23:29:46.424Z,52.00
2023-02-22T23:32:14.213Z,49.70
2023-02-22T23:34:41.881Z,47.05
2023-02-22T23:37:10.458Z,49.78
2023-02-22T23:39:38.459Z,50.33
2023-02-22T23:42:08.698Z,57.47
2023-02-22T23:44:36.100Z,53.63
2023-02-22T23:47:04.305Z,48.67
2023-02-22T23:49:38.649Z,48.28
2023-02-22T23:52:08.378Z,46.00
2023-02-22T23:54:40.211Z,51.70
2023-02-22T23:57:08.764Z,53.30
2023-02-22T23:59:40.334Z,51.70
